Terminal Aerodrome Forecast
Issued by NWS North Platte, NE

Home | Current Version | Previous Version | Text Only | Print | Product List | Glossary On
Versions: 1 2 3 4 5 6 7 8 9 10 11 12 13 14 15 16 17 18 19 20 21
000
FTUS43 KLBF 292340
TAFLBF
TAF
KLBF 292340Z 3000/3024 15004KT P6SM SCT070 OVC150
     FM300300 12008KT P6SM VCTS BKN040CB OVC150
     FM300700 14008KT P6SM OVC020
     FM301300 16010KT P6SM SCT050=

USA.gov is the U.S. government's official web portal to all federal, state and local government web resources and services.